sensor_id;sensor_type;location;lat;lon;timestamp;temperature;humidity
2955;DHT22;1487;51.470;6.938;2022-08-11T00:00:32;20.20;99.90
2955;DHT22;1487;51.470;6.938;2022-08-11T00:03:04;20.10;99.90
2955;DHT22;1487;51.470;6.938;2022-08-11T00:05:35;20.00;99.90
2955;DHT22;1487;51.470;6.938;2022-08-11T00:08:09;19.90;99.90
2955;DHT22;1487;51.470;6.938;2022-08-11T00:10:36;19.90;99.90
2955;DHT22;1487;51.470;6.938;2022-08-11T00:13:05;19.80;99.90
2955;DHT22;1487;51.470;6.938;2022-08-11T00:15:40;19.70;99.90
2955;DHT22;1487;51.470;6.938;2022-08-11T00:18:08;19.70;99.90
2955;DHT22;1487;51.470;6.938;2022-08-11T00:20:39;19.60;99.90
2955;DHT22;1487;51.470;6.938;2022-08-11T00:23:08;19.60;99.90
2955;DHT22;1487;51.470;6.938;2022-08-11T00:25:40;19.50;99.90
2955;DHT22;1487;51.470;6.938;2022-08-11T00:28:32;19.50;99.90
2955;DHT22;1487;51.470;6.938;2022-08-11T00:31:03;19.40;99.90
2955;DHT22;1487;51.470;6.938;2022-08-11T00:33:34;19.30;99.90
2955;DHT22;1487;51.470;6.938;2022-08-11T00:36:03;19.30;99.90
2955;DHT22;1487;51.470;6.938;2022-08-11T00:38:34;19.20;99.90
2955;DHT22;1487;51.470;6.938;2022-08-11T00:41:10;19.20;99.90
2955;DHT22;1487;51.470;6.938;2022-08-11T00:44:03;19.20;99.90
2955;DHT22;1487;51.470;6.938;2022-08-11T00:46:45;19.10;99.90
2955;DHT22;1487;51.470;6.938;2022-08-11T00:49:37;19.00;99.90
2955;DHT22;1487;51.470;6.938;2022-08-11T00:52:15;19.00;99.90
2955;DHT22;1487;51.470;6.938;2022-08-11T00:55:06;18.90;99.90
2955;DHT22;1487;51.470;6.938;2022-08-11T00:58:09;18.90;99.90
2955;DHT22;1487;51.470;6.938;2022-08-11T01:01:01;18.90;99.90
2955;DHT22;1487;51.470;6.938;2022-08-11T01:03:52;18.90;99.90
2955;DHT22;1487;51.470;6.938;2022-08-11T01:06:53;18.90;99.90
2955;DHT22;1487;51.470;6.938;2022-08-11T01:09:53;18.80;99.90
2955;DHT22;1487;51.470;6.938;2022-08-11T01:12:41;18.70;99.90
2955;DHT22;1487;51.470;6.938;2022-08-11T01:18:47;18.60;99.90
2955;DHT22;1487;51.470;6.938;2022-08-11T01:31:04;18.70;99.90
2955;DHT22;1487;51.470;6.938;2022-08-11T01:34:05;18.60;99.90
2955;DHT22;1487;51.470;6.938;2022-08-11T01:36:59;18.50;99.90
2955;DHT22;1487;51.470;6.938;2022-08-11T01:46:11;18.40;99.90
2955;DHT22;1487;51.470;6.938;2022-08-11T01:48:42;18.40;99.90
2955;DHT22;1487;51.470;6.938;2022-08-11T01:51:22;18.40;99.90
2955;DHT22;1487;51.470;6.938;2022-08-11T01:54:00;18.40;99.90
2955;DHT22;1487;51.470;6.938;2022-08-11T01:56:54;18.30;99.90
2955;DHT22;1487;51.470;6.938;2022-08-11T01:59:27;18.20;99.90
2955;DHT22;1487;51.470;6.938;2022-08-11T02:02:21;18.20;99.90
2955;DHT22;1487;51.470;6.938;2022-08-11T02:05:19;18.20;99.90
2955;DHT22;1487;51.470;6.938;2022-08-11T02:07:57;18.10;99.90
2955;DHT22;1487;51.470;6.938;2022-08-11T02:10:32;18.10;99.90
2955;DHT22;1487;51.470;6.938;2022-08-11T02:13:24;18.10;99.90
2955;DHT22;1487;51.470;6.938;2022-08-11T02:16:07;18.10;99.90
2955;DHT22;1487;51.470;6.938;2022-08-11T02:18:37;18.00;99.90
2955;DHT22;1487;51.470;6.938;2022-08-11T02:21:29;18.00;99.90
2955;DHT22;1487;51.470;6.938;2022-08-11T02:24:19;18.00;99.90
2955;DHT22;1487;51.470;6.938;2022-08-11T02:26:59;17.90;99.90
2955;DHT22;1487;51.470;6.938;2022-08-11T02:29:32;17.90;99.90
2955;DHT22;1487;51.470;6.938;2022-08-11T02:32:06;17.90;99.90
2955;DHT22;1487;51.470;6.938;2022-08-11T02:35:02;17.90;99.90
2955;DHT22;1487;51.470;6.938;2022-08-11T02:37:40;17.90;99.90
2955;DHT22;1487;51.470;6.938;2022-08-11T02:40:17;17.90;99.90
2955;DHT22;1487;51.470;6.938;2022-08-11T02:43:07;17.90;99.90
2955;DHT22;1487;51.470;6.938;2022-08-11T02:45:44;17.80;99.90
2955;DHT22;1487;51.470;6.938;2022-08-11T02:48:37;17.80;99.90
2955;DHT22;1487;51.470;6.938;2022-08-11T02:51:29;17.80;99.90
2955;DHT22;1487;51.470;6.938;2022-08-11T02:54:06;17.80;99.90
2955;DHT22;1487;51.470;6.938;2022-08-11T02:56:41;17.70;99.90
2955;DHT22;1487;51.470;6.938;2022-08-11T02:59:24;17.70;99.90
2955;DHT22;1487;51.470;6.938;2022-08-11T03:02:15;17.70;99.90
2955;DHT22;1487;51.470;6.938;2022-08-11T03:04:58;17.70;99.90
2955;DHT22;1487;51.470;6.938;2022-08-11T03:07:30;17.70;99.90
2955;DHT22;1487;51.470;6.938;2022-08-11T03:10:04;17.70;99.90
2955;DHT22;1487;51.470;6.938;2022-08-11T03:12:43;17.70;99.90
2955;DHT22;1487;51.470;6.938;2022-08-11T03:15:37;17.80;99.90
2955;DHT22;1487;51.470;6.938;2022-08-11T03:18:33;17.80;99.90
2955;DHT22;1487;51.470;6.938;2022-08-11T03:21:06;17.80;99.90
2955;DHT22;1487;51.470;6.938;2022-08-11T03:23:40;17.70;99.90
2955;DHT22;1487;51.470;6.938;2022-08-11T03:26:20;17.70;99.90
2955;DHT22;1487;51.470;6.938;2022-08-11T03:28:55;17.60;99.90
2955;DHT22;1487;51.470;6.938;2022-08-11T03:31:31;17.60;99.90
2955;DHT22;1487;51.470;6.938;2022-08-11T03:34:03;17.60;99.90
2955;DHT22;1487;51.470;6.938;2022-08-11T03:36:53;17.60;99.90
2955;DHT22;1487;51.470;6.938;2022-08-11T03:39:36;17.50;99.90
2955;DHT22;1487;51.470;6.938;2022-08-11T03:42:17;17.40;99.90
2955;DHT22;1487;51.470;6.938;2022-08-11T03:45:00;17.40;99.90
2955;DHT22;1487;51.470;6.938;2022-08-11T03:48:07;17.40;99.90
2955;DHT22;1487;51.470;6.938;2022-08-11T03:50:52;17.40;99.90
2955;DHT22;1487;51.470;6.938;2022-08-11T04:02:37;17.20;99.90
2955;DHT22;1487;51.470;6.938;2022-08-11T04:05:48;17.10;99.90
2955;DHT22;1487;51.470;6.938;2022-08-11T04:08:54;17.10;99.90
2955;DHT22;1487;51.470;6.938;2022-08-11T04:14:50;17.00;99.90
2955;DHT22;1487;51.470;6.938;2022-08-11T04:18:17;17.00;99.90
2955;DHT22;1487;51.470;6.938;2022-08-11T04:21:11;17.00;99.90
2955;DHT22;1487;51.470;6.938;2022-08-11T04:24:25;17.00;99.90
2955;DHT22;1487;51.470;6.938;2022-08-11T04:27:17;17.10;99.90
2955;DHT22;1487;51.470;6.938;2022-08-11T04:29:56;17.20;99.90
2955;DHT22;1487;51.470;6.938;2022-08-11T04:32:41;17.30;99.90
2955;DHT22;1487;51.470;6.938;2022-08-11T04:35:27;17.30;99.90
2955;DHT22;1487;51.470;6.938;2022-08-11T04:41:49;17.40;99.90
2955;DHT22;1487;51.470;6.938;2022-08-11T04:45:05;17.40;99.90
2955;DHT22;1487;51.470;6.938;2022-08-11T04:47:50;17.40;99.90
2955;DHT22;1487;51.470;6.938;2022-08-11T04:50:51;17.40;99.90
2955;DHT22;1487;51.470;6.938;2022-08-11T04:53:53;17.50;99.90
2955;DHT22;1487;51.470;6.938;2022-08-11T04:56:51;17.50;99.90
2955;DHT22;1487;51.470;6.938;2022-08-11T05:00:04;17.50;99.90
2955;DHT22;1487;51.470;6.938;2022-08-11T05:03:32;17.50;99.90
2955;DHT22;1487;51.470;6.938;2022-08-11T05:09:18;17.60;99.90
2955;DHT22;1487;51.470;6.938;2022-08-11T05:12:13;17.70;99.90
2955;DHT22;1487;51.470;6.938;2022-08-11T05:14:48;17.70;99.90
2955;DHT22;1487;51.470;6.938;2022-08-11T05:17:39;17.80;99.90
2955;DHT22;1487;51.470;6.938;2022-08-11T05:20:25;17.90;99.90
2955;DHT22;1487;51.470;6.938;2022-08-11T05:23:11;17.90;99.90
2955;DHT22;1487;51.470;6.938;2022-08-11T05:25:59;18.00;99.90
2955;DHT22;1487;51.470;6.938;2022-08-11T05:28:51;18.00;99.90
2955;DHT22;1487;51.470;6.938;2022-08-11T05:31:38;18.10;99.90
2955;DHT22;1487;51.470;6.938;2022-08-11T05:34:26;18.10;99.90
2955;DHT22;1487;51.470;6.938;2022-08-11T05:37:15;18.30;99.90
2955;DHT22;1487;51.470;6.938;2022-08-11T05:39:47;18.40;99.90
2955;DHT22;1487;51.470;6.938;2022-08-11T05:42:35;18.50;99.90
2955;DHT22;1487;51.470;6.938;2022-08-11T05:45:21;18.60;99.90
2955;DHT22;1487;51.470;6.938;2022-08-11T05:48:05;18.70;99.90
2955;DHT22;1487;51.470;6.938;2022-08-11T05:50:52;18.90;99.90
2955;DHT22;1487;51.470;6.938;2022-08-11T05:53:45;19.00;99.90
2955;DHT22;1487;51.470;6.938;2022-08-11T05:56:31;19.10;99.90
2955;DHT22;1487;51.470;6.938;2022-08-11T05:59:00;19.20;99.90
2955;DHT22;1487;51.470;6.938;2022-08-11T06:01:29;19.40;99.90
2955;DHT22;1487;51.470;6.938;2022-08-11T06:03:59;19.40;99.90
2955;DHT22;1487;51.470;6.938;2022-08-11T06:06:49;19.80;99.90
2955;DHT22;1487;51.470;6.938;2022-08-11T06:09:25;21.40;99.90
2955;DHT22;1487;51.470;6.938;2022-08-11T06:11:56;23.30;99.90
2955;DHT22;1487;51.470;6.938;2022-08-11T06:14:25;25.00;99.90
2955;DHT22;1487;51.470;6.938;2022-08-11T06:16:55;25.80;94.30
2955;DHT22;1487;51.470;6.938;2022-08-11T06:19:32;27.00;91.20
2955;DHT22;1487;51.470;6.938;2022-08-11T06:22:02;28.20;79.30
2955;DHT22;1487;51.470;6.938;2022-08-11T06:24:29;29.20;76.10
2955;DHT22;1487;51.470;6.938;2022-08-11T06:26:58;30.40;68.60
2955;DHT22;1487;51.470;6.938;2022-08-11T06:29:27;31.40;65.70
2955;DHT22;1487;51.470;6.938;2022-08-11T06:31:59;32.10;59.50
2955;DHT22;1487;51.470;6.938;2022-08-11T06:34:33;32.30;57.60
2955;DHT22;1487;51.470;6.938;2022-08-11T06:37:13;32.50;56.50
2955;DHT22;1487;51.470;6.938;2022-08-11T06:39:46;33.30;56.10
2955;DHT22;1487;51.470;6.938;2022-08-11T06:42:23;34.20;55.00
2955;DHT22;1487;51.470;6.938;2022-08-11T06:45:03;34.80;52.30
2955;DHT22;1487;51.470;6.938;2022-08-11T06:47:33;34.60;51.60
2955;DHT22;1487;51.470;6.938;2022-08-11T06:50:01;34.90;51.00
2955;DHT22;1487;51.470;6.938;2022-08-11T06:52:46;34.90;50.70
2955;DHT22;1487;51.470;6.938;2022-08-11T06:55:21;35.40;50.00
2955;DHT22;1487;51.470;6.938;2022-08-11T06:58:12;35.60;50.40
2955;DHT22;1487;51.470;6.938;2022-08-11T07:01:04;36.00;50.50
2955;DHT22;1487;51.470;6.938;2022-08-11T07:03:36;37.00;47.90
2955;DHT22;1487;51.470;6.938;2022-08-11T07:06:17;37.60;47.60
2955;DHT22;1487;51.470;6.938;2022-08-11T07:09:18;37.80;46.10
2955;DHT22;1487;51.470;6.938;2022-08-11T07:12:37;38.50;45.60
2955;DHT22;1487;51.470;6.938;2022-08-11T07:15:28;38.70;44.70
2955;DHT22;1487;51.470;6.938;2022-08-11T07:18:13;38.40;44.20
2955;DHT22;1487;51.470;6.938;2022-08-11T07:21:12;38.70;44.30
2955;DHT22;1487;51.470;6.938;2022-08-11T07:24:00;39.10;44.10
2955;DHT22;1487;51.470;6.938;2022-08-11T07:26:49;39.00;43.30
2955;DHT22;1487;51.470;6.938;2022-08-11T07:29:35;39.30;43.80
2955;DHT22;1487;51.470;6.938;2022-08-11T07:32:12;40.00;44.00
2955;DHT22;1487;51.470;6.938;2022-08-11T07:34:46;40.30;42.80
2955;DHT22;1487;51.470;6.938;2022-08-11T07:37:16;40.90;42.00
2955;DHT22;1487;51.470;6.938;2022-08-11T07:39:47;41.20;41.90
2955;DHT22;1487;51.470;6.938;2022-08-11T07:42:18;41.90;41.80
2955;DHT22;1487;51.470;6.938;2022-08-11T07:44:46;41.20;40.30
2955;DHT22;1487;51.470;6.938;2022-08-11T07:47:32;41.50;40.30
2955;DHT22;1487;51.470;6.938;2022-08-11T07:50:20;41.50;40.50
2955;DHT22;1487;51.470;6.938;2022-08-11T07:53:05;41.90;40.00
2955;DHT22;1487;51.470;6.938;2022-08-11T07:55:32;42.10;39.20
2955;DHT22;1487;51.470;6.938;2022-08-11T07:58:00;42.40;39.10
2955;DHT22;1487;51.470;6.938;2022-08-11T08:00:48;42.00;39.30
2955;DHT22;1487;51.470;6.938;2022-08-11T08:03:34;42.50;40.20
2955;DHT22;1487;51.470;6.938;2022-08-11T08:06:21;43.10;39.30
2955;DHT22;1487;51.470;6.938;2022-08-11T08:09:06;43.20;39.10
2955;DHT22;1487;51.470;6.938;2022-08-11T08:11:51;44.10;38.10
2955;DHT22;1487;51.470;6.938;2022-08-11T08:14:37;43.80;36.70
2955;DHT22;1487;51.470;6.938;2022-08-11T08:17:21;42.80;37.20
2955;DHT22;1487;51.470;6.938;2022-08-11T08:20:10;43.00;38.10
2955;DHT22;1487;51.470;6.938;2022-08-11T08:22:39;43.00;37.60
2955;DHT22;1487;51.470;6.938;2022-08-11T08:25:07;42.60;38.10
2955;DHT22;1487;51.470;6.938;2022-08-11T08:27:35;43.30;37.30
2955;DHT22;1487;51.470;6.938;2022-08-11T08:30:04;43.40;37.10
2955;DHT22;1487;51.470;6.938;2022-08-11T08:32:49;44.10;37.00
2955;DHT22;1487;51.470;6.938;2022-08-11T08:35:18;43.50;36.80
2955;DHT22;1487;51.470;6.938;2022-08-11T08:37:48;43.10;37.40
2955;DHT22;1487;51.470;6.938;2022-08-11T08:40:15;42.70;37.00
2955;DHT22;1487;51.470;6.938;2022-08-11T08:42:48;42.30;37.00
2955;DHT22;1487;51.470;6.938;2022-08-11T08:45:18;42.70;37.20
2955;DHT22;1487;51.470;6.938;2022-08-11T08:47:47;43.00;38.50
2955;DHT22;1487;51.470;6.938;2022-08-11T08:50:20;43.70;37.40
2955;DHT22;1487;51.470;6.938;2022-08-11T08:52:53;44.10;36.60
2955;DHT22;1487;51.470;6.938;2022-08-11T08:55:21;43.50;36.50
2955;DHT22;1487;51.470;6.938;2022-08-11T08:57:49;43.10;36.40
2955;DHT22;1487;51.470;6.938;2022-08-11T09:00:18;43.50;36.80
2955;DHT22;1487;51.470;6.938;2022-08-11T09:02:46;44.10;37.40
2955;DHT22;1487;51.470;6.938;2022-08-11T09:05:16;44.90;36.80
2955;DHT22;1487;51.470;6.938;2022-08-11T09:07:44;44.60;35.10
2955;DHT22;1487;51.470;6.938;2022-08-11T09:10:14;44.90;36.80
2955;DHT22;1487;51.470;6.938;2022-08-11T09:12:44;45.20;35.80
2955;DHT22;1487;51.470;6.938;2022-08-11T09:15:12;45.20;35.40
2955;DHT22;1487;51.470;6.938;2022-08-11T09:17:43;46.10;35.40
2955;DHT22;1487;51.470;6.938;2022-08-11T09:20:13;46.50;34.00
2955;DHT22;1487;51.470;6.938;2022-08-11T09:22:42;46.20;33.40
2955;DHT22;1487;51.470;6.938;2022-08-11T09:25:30;45.60;34.10
2955;DHT22;1487;51.470;6.938;2022-08-11T09:28:16;46.20;33.60
2955;DHT22;1487;51.470;6.938;2022-08-11T09:30:45;45.60;34.00
2955;DHT22;1487;51.470;6.938;2022-08-11T09:33:14;45.00;34.30
2955;DHT22;1487;51.470;6.938;2022-08-11T09:35:43;45.40;35.30
2955;DHT22;1487;51.470;6.938;2022-08-11T09:38:14;46.20;33.40
2955;DHT22;1487;51.470;6.938;2022-08-11T09:41:02;45.60;32.90
2955;DHT22;1487;51.470;6.938;2022-08-11T09:43:31;44.50;33.50
2955;DHT22;1487;51.470;6.938;2022-08-11T09:46:21;44.80;34.10
2955;DHT22;1487;51.470;6.938;2022-08-11T09:48:51;44.70;33.40
2955;DHT22;1487;51.470;6.938;2022-08-11T09:51:20;45.10;32.90
2955;DHT22;1487;51.470;6.938;2022-08-11T09:53:48;44.90;33.50
2955;DHT22;1487;51.470;6.938;2022-08-11T09:56:18;45.50;33.80
2955;DHT22;1487;51.470;6.938;2022-08-11T09:59:01;46.20;32.50
2955;DHT22;1487;51.470;6.938;2022-08-11T10:01:30;46.80;31.90
2955;DHT22;1487;51.470;6.938;2022-08-11T10:04:02;46.60;32.10
2955;DHT22;1487;51.470;6.938;2022-08-11T10:06:30;46.40;33.30
2955;DHT22;1487;51.470;6.938;2022-08-11T10:09:17;46.60;31.10
2955;DHT22;1487;51.470;6.938;2022-08-11T10:11:46;46.50;31.60
2955;DHT22;1487;51.470;6.938;2022-08-11T10:14:15;46.60;31.90
2955;DHT22;1487;51.470;6.938;2022-08-11T10:17:04;46.70;32.10
2955;DHT22;1487;51.470;6.938;2022-08-11T10:19:33;47.10;31.30
2955;DHT22;1487;51.470;6.938;2022-08-11T10:22:01;47.10;31.10
2955;DHT22;1487;51.470;6.938;2022-08-11T10:24:45;46.90;30.00
2955;DHT22;1487;51.470;6.938;2022-08-11T10:27:31;46.20;30.00
2955;DHT22;1487;51.470;6.938;2022-08-11T10:29:59;45.60;32.30
2955;DHT22;1487;51.470;6.938;2022-08-11T10:32:44;44.90;31.70
2955;DHT22;1487;51.470;6.938;2022-08-11T10:35:30;45.10;30.70
2955;DHT22;1487;51.470;6.938;2022-08-11T10:37:58;44.70;31.60
2955;DHT22;1487;51.470;6.938;2022-08-11T10:40:26;44.90;31.20
2955;DHT22;1487;51.470;6.938;2022-08-11T10:42:57;44.60;31.50
2955;DHT22;1487;51.470;6.938;2022-08-11T10:45:39;44.90;31.60
2955;DHT22;1487;51.470;6.938;2022-08-11T10:48:25;45.20;32.50
2955;DHT22;1487;51.470;6.938;2022-08-11T10:50:54;44.40;31.90
2955;DHT22;1487;51.470;6.938;2022-08-11T10:53:42;44.00;31.10
2955;DHT22;1487;51.470;6.938;2022-08-11T10:56:28;43.60;31.80
2955;DHT22;1487;51.470;6.938;2022-08-11T10:59:15;43.70;32.40
2955;DHT22;1487;51.470;6.938;2022-08-11T11:01:44;44.40;32.20
2955;DHT22;1487;51.470;6.938;2022-08-11T11:04:13;44.60;31.50
2955;DHT22;1487;51.470;6.938;2022-08-11T11:06:48;44.40;31.50
2955;DHT22;1487;51.470;6.938;2022-08-11T11:09:18;44.30;30.60
2955;DHT22;1487;51.470;6.938;2022-08-11T11:11:48;43.50;31.10
2955;DHT22;1487;51.470;6.938;2022-08-11T11:14:47;43.90;32.10
2955;DHT22;1487;51.470;6.938;2022-08-11T11:17:38;44.00;30.80
2955;DHT22;1487;51.470;6.938;2022-08-11T11:20:28;43.70;32.30
2955;DHT22;1487;51.470;6.938;2022-08-11T11:23:02;43.20;31.10
2955;DHT22;1487;51.470;6.938;2022-08-11T11:31:46;42.80;31.90
2955;DHT22;1487;51.470;6.938;2022-08-11T11:34:22;43.00;31.70
2955;DHT22;1487;51.470;6.938;2022-08-11T11:36:57;42.50;32.00
2955;DHT22;1487;51.470;6.938;2022-08-11T11:39:25;42.20;32.20
2955;DHT22;1487;51.470;6.938;2022-08-11T11:41:56;42.30;32.70
2955;DHT22;1487;51.470;6.938;2022-08-11T11:44:24;42.60;33.00
2955;DHT22;1487;51.470;6.938;2022-08-11T11:46:53;42.70;32.30
2955;DHT22;1487;51.470;6.938;2022-08-11T11:49:22;42.90;32.90
2955;DHT22;1487;51.470;6.938;2022-08-11T11:51:51;43.60;32.10
2955;DHT22;1487;51.470;6.938;2022-08-11T11:54:27;44.10;32.10
2955;DHT22;1487;51.470;6.938;2022-08-11T11:56:55;44.50;31.30
2955;DHT22;1487;51.470;6.938;2022-08-11T11:59:25;43.80;31.70
2955;DHT22;1487;51.470;6.938;2022-08-11T12:02:13;43.30;31.20
2955;DHT22;1487;51.470;6.938;2022-08-11T12:04:43;42.70;32.20
2955;DHT22;1487;51.470;6.938;2022-08-11T12:07:13;43.00;31.90
2955;DHT22;1487;51.470;6.938;2022-08-11T12:09:58;43.00;31.70
2955;DHT22;1487;51.470;6.938;2022-08-11T12:12:25;42.50;32.00
2955;DHT22;1487;51.470;6.938;2022-08-11T12:15:10;43.10;33.20
2955;DHT22;1487;51.470;6.938;2022-08-11T12:17:39;43.40;33.20
2955;DHT22;1487;51.470;6.938;2022-08-11T12:20:07;43.70;31.70
2955;DHT22;1487;51.470;6.938;2022-08-11T12:22:34;44.00;32.40
2955;DHT22;1487;51.470;6.938;2022-08-11T12:25:18;44.50;32.70
2955;DHT22;1487;51.470;6.938;2022-08-11T12:28:08;44.80;31.70
2955;DHT22;1487;51.470;6.938;2022-08-11T12:30:35;44.20;30.50
2955;DHT22;1487;51.470;6.938;2022-08-11T12:33:07;43.50;30.80
2955;DHT22;1487;51.470;6.938;2022-08-11T12:35:36;42.80;32.50
2955;DHT22;1487;51.470;6.938;2022-08-11T12:38:03;42.40;32.40
2955;DHT22;1487;51.470;6.938;2022-08-11T12:40:31;42.20;32.80
2955;DHT22;1487;51.470;6.938;2022-08-11T12:43:18;42.60;34.00
2955;DHT22;1487;51.470;6.938;2022-08-11T12:46:06;42.70;32.10
2955;DHT22;1487;51.470;6.938;2022-08-11T12:48:39;43.40;33.20
2955;DHT22;1487;51.470;6.938;2022-08-11T12:51:29;43.00;31.90
2955;DHT22;1487;51.470;6.938;2022-08-11T12:54:17;41.30;33.00
2955;DHT22;1487;51.470;6.938;2022-08-11T12:56:52;41.80;33.90
2955;DHT22;1487;51.470;6.938;2022-08-11T12:59:38;42.20;33.30
2955;DHT22;1487;51.470;6.938;2022-08-11T13:02:24;41.90;31.90
2955;DHT22;1487;51.470;6.938;2022-08-11T13:05:12;42.00;32.90
2955;DHT22;1487;51.470;6.938;2022-08-11T13:07:41;41.80;33.40
2955;DHT22;1487;51.470;6.938;2022-08-11T13:10:10;42.40;33.50
2955;DHT22;1487;51.470;6.938;2022-08-11T13:12:38;42.60;32.80
2955;DHT22;1487;51.470;6.938;2022-08-11T13:15:15;41.60;33.50
2955;DHT22;1487;51.470;6.938;2022-08-11T13:17:43;41.00;33.30
2955;DHT22;1487;51.470;6.938;2022-08-11T13:20:15;40.80;33.20
2955;DHT22;1487;51.470;6.938;2022-08-11T13:22:47;40.30;33.30
2955;DHT22;1487;51.470;6.938;2022-08-11T13:25:16;40.60;34.00
2955;DHT22;1487;51.470;6.938;2022-08-11T13:27:44;40.90;33.60
2955;DHT22;1487;51.470;6.938;2022-08-11T13:30:13;40.90;34.40
2955;DHT22;1487;51.470;6.938;2022-08-11T13:33:12;41.00;33.40
2955;DHT22;1487;51.470;6.938;2022-08-11T13:35:43;41.80;33.30
2955;DHT22;1487;51.470;6.938;2022-08-11T13:38:11;41.80;33.00
2955;DHT22;1487;51.470;6.938;2022-08-11T13:40:39;41.80;32.40
2955;DHT22;1487;51.470;6.938;2022-08-11T13:43:07;42.00;33.30
2955;DHT22;1487;51.470;6.938;2022-08-11T13:45:35;42.10;32.90
2955;DHT22;1487;51.470;6.938;2022-08-11T13:48:07;42.10;32.60
2955;DHT22;1487;51.470;6.938;2022-08-11T13:50:35;41.60;33.10
2955;DHT22;1487;51.470;6.938;2022-08-11T13:53:23;41.80;33.00
2955;DHT22;1487;51.470;6.938;2022-08-11T13:55:50;40.70;33.00
2955;DHT22;1487;51.470;6.938;2022-08-11T13:58:18;41.40;34.40
2955;DHT22;1487;51.470;6.938;2022-08-11T14:00:49;41.60;33.90
2955;DHT22;1487;51.470;6.938;2022-08-11T14:03:22;42.10;33.90
2955;DHT22;1487;51.470;6.938;2022-08-11T14:05:52;41.80;32.70
2955;DHT22;1487;51.470;6.938;2022-08-11T14:08:24;41.70;33.50
2955;DHT22;1487;51.470;6.938;2022-08-11T14:10:52;42.10;33.10
2955;DHT22;1487;51.470;6.938;2022-08-11T14:13:36;42.10;32.90
2955;DHT22;1487;51.470;6.938;2022-08-11T14:16:07;41.40;32.90
2955;DHT22;1487;51.470;6.938;2022-08-11T14:18:41;41.30;33.30
2955;DHT22;1487;51.470;6.938;2022-08-11T14:21:13;41.20;33.30
2955;DHT22;1487;51.470;6.938;2022-08-11T14:24:00;40.60;33.80
2955;DHT22;1487;51.470;6.938;2022-08-11T14:26:29;40.40;34.00
2955;DHT22;1487;51.470;6.938;2022-08-11T14:29:05;40.00;33.50
2955;DHT22;1487;51.470;6.938;2022-08-11T14:31:34;39.60;33.50
2955;DHT22;1487;51.470;6.938;2022-08-11T14:34:04;39.50;34.30
2955;DHT22;1487;51.470;6.938;2022-08-11T14:36:33;39.70;34.80
2955;DHT22;1487;51.470;6.938;2022-08-11T14:39:06;40.00;34.70
2955;DHT22;1487;51.470;6.938;2022-08-11T14:41:37;40.10;35.10
2955;DHT22;1487;51.470;6.938;2022-08-11T14:44:21;40.40;35.10
2955;DHT22;1487;51.470;6.938;2022-08-11T14:47:06;40.90;34.20
2955;DHT22;1487;51.470;6.938;2022-08-11T14:49:40;40.80;33.80
2955;DHT22;1487;51.470;6.938;2022-08-11T14:52:10;40.30;33.50
2955;DHT22;1487;51.470;6.938;2022-08-11T14:54:42;39.70;33.90
2955;DHT22;1487;51.470;6.938;2022-08-11T14:57:26;39.40;34.30
2955;DHT22;1487;51.470;6.938;2022-08-11T14:59:56;39.50;35.00
2955;DHT22;1487;51.470;6.938;2022-08-11T15:02:23;39.70;34.60
2955;DHT22;1487;51.470;6.938;2022-08-11T15:05:08;39.60;35.20
2955;DHT22;1487;51.470;6.938;2022-08-11T15:07:35;39.80;34.30
2955;DHT22;1487;51.470;6.938;2022-08-11T15:10:06;39.20;34.30
2955;DHT22;1487;51.470;6.938;2022-08-11T15:12:36;38.90;35.10
2955;DHT22;1487;51.470;6.938;2022-08-11T15:15:08;38.50;34.30
2955;DHT22;1487;51.470;6.938;2022-08-11T15:18:10;38.10;34.50
2955;DHT22;1487;51.470;6.938;2022-08-11T15:20:43;38.20;35.60
2955;DHT22;1487;51.470;6.938;2022-08-11T15:23:39;38.40;35.40
2955;DHT22;1487;51.470;6.938;2022-08-11T15:26:29;37.80;34.80
2955;DHT22;1487;51.470;6.938;2022-08-11T15:29:19;37.50;35.30
2955;DHT22;1487;51.470;6.938;2022-08-11T15:32:02;37.00;36.20
2955;DHT22;1487;51.470;6.938;2022-08-11T15:34:50;36.30;35.90
2955;DHT22;1487;51.470;6.938;2022-08-11T15:37:36;35.40;36.70
2955;DHT22;1487;51.470;6.938;2022-08-11T15:40:09;34.80;37.50
2955;DHT22;1487;51.470;6.938;2022-08-11T15:43:01;34.40;38.70
2955;DHT22;1487;51.470;6.938;2022-08-11T15:45:49;34.00;38.50
2955;DHT22;1487;51.470;6.938;2022-08-11T15:48:21;33.70;39.60
2955;DHT22;1487;51.470;6.938;2022-08-11T15:50:53;33.50;39.20
2955;DHT22;1487;51.470;6.938;2022-08-11T15:53:26;33.10;40.00
2955;DHT22;1487;51.470;6.938;2022-08-11T15:55:55;33.00;39.90
2955;DHT22;1487;51.470;6.938;2022-08-11T15:58:29;32.80;40.10
2955;DHT22;1487;51.470;6.938;2022-08-11T16:01:15;32.60;39.90
2955;DHT22;1487;51.470;6.938;2022-08-11T16:04:05;32.40;40.10
2955;DHT22;1487;51.470;6.938;2022-08-11T16:06:48;32.30;40.30
2955;DHT22;1487;51.470;6.938;2022-08-11T16:09:19;32.20;40.10
2955;DHT22;1487;51.470;6.938;2022-08-11T16:11:48;32.00;40.00
2955;DHT22;1487;51.470;6.938;2022-08-11T16:14:18;31.90;41.00
2955;DHT22;1487;51.470;6.938;2022-08-11T16:17:03;31.80;40.50
2955;DHT22;1487;51.470;6.938;2022-08-11T16:19:32;31.60;40.60
2955;DHT22;1487;51.470;6.938;2022-08-11T16:22:02;31.40;41.60
2955;DHT22;1487;51.470;6.938;2022-08-11T16:24:33;31.40;41.70
2955;DHT22;1487;51.470;6.938;2022-08-11T16:27:01;31.30;41.60
2955;DHT22;1487;51.470;6.938;2022-08-11T16:29:31;31.20;41.60
2955;DHT22;1487;51.470;6.938;2022-08-11T16:32:01;31.10;41.90
2955;DHT22;1487;51.470;6.938;2022-08-11T16:34:47;31.00;41.90
2955;DHT22;1487;51.470;6.938;2022-08-11T16:37:33;31.00;42.10
2955;DHT22;1487;51.470;6.938;2022-08-11T16:40:18;30.90;41.60
2955;DHT22;1487;51.470;6.938;2022-08-11T16:42:49;30.80;42.10
2955;DHT22;1487;51.470;6.938;2022-08-11T16:45:35;30.70;42.80
2955;DHT22;1487;51.470;6.938;2022-08-11T16:48:21;30.50;42.80
2955;DHT22;1487;51.470;6.938;2022-08-11T16:50:50;30.50;43.00
2955;DHT22;1487;51.470;6.938;2022-08-11T16:53:16;30.40;42.90
2955;DHT22;1487;51.470;6.938;2022-08-11T16:55:45;30.40;43.40
2955;DHT22;1487;51.470;6.938;2022-08-11T16:58:13;30.40;42.40
2955;DHT22;1487;51.470;6.938;2022-08-11T17:01:00;30.30;42.30
2955;DHT22;1487;51.470;6.938;2022-08-11T17:03:29;30.30;42.70
2955;DHT22;1487;51.470;6.938;2022-08-11T17:06:16;30.10;43.50
2955;DHT22;1487;51.470;6.938;2022-08-11T17:09:02;30.10;44.00
2955;DHT22;1487;51.470;6.938;2022-08-11T17:11:50;30.10;43.40
2955;DHT22;1487;51.470;6.938;2022-08-11T17:14:39;30.00;43.40
2955;DHT22;1487;51.470;6.938;2022-08-11T17:17:13;29.90;43.60
2955;DHT22;1487;51.470;6.938;2022-08-11T17:19:45;29.80;44.30
2955;DHT22;1487;51.470;6.938;2022-08-11T17:22:13;29.80;44.50
2955;DHT22;1487;51.470;6.938;2022-08-11T17:24:59;29.70;44.90
2955;DHT22;1487;51.470;6.938;2022-08-11T17:27:27;29.60;45.00
2955;DHT22;1487;51.470;6.938;2022-08-11T17:29:58;29.60;44.90
2955;DHT22;1487;51.470;6.938;2022-08-11T17:32:30;29.60;44.70
2955;DHT22;1487;51.470;6.938;2022-08-11T17:35:18;29.60;44.60
2955;DHT22;1487;51.470;6.938;2022-08-11T17:38:01;29.60;44.10
2955;DHT22;1487;51.470;6.938;2022-08-11T17:40:32;29.50;44.80
2955;DHT22;1487;51.470;6.938;2022-08-11T17:43:03;29.50;44.30
2955;DHT22;1487;51.470;6.938;2022-08-11T17:45:47;29.50;44.00
2955;DHT22;1487;51.470;6.938;2022-08-11T17:48:36;29.50;43.80
2955;DHT22;1487;51.470;6.938;2022-08-11T17:51:07;29.50;43.60
2955;DHT22;1487;51.470;6.938;2022-08-11T17:53:37;29.40;44.00
2955;DHT22;1487;51.470;6.938;2022-08-11T17:56:23;29.20;44.70
2955;DHT22;1487;51.470;6.938;2022-08-11T17:59:08;29.10;44.90
2955;DHT22;1487;51.470;6.938;2022-08-11T18:01:55;29.00;45.50